createdAt,value
2018-08-11T00:29:16.029Z,15.86
2018-08-11T00:30:41.867Z,15.88
2018-08-11T00:32:09.419Z,15.92
2018-08-11T00:33:35.626Z,15.87
2018-08-11T00:35:04.281Z,15.83
2018-08-11T00:38:46.331Z,15.78
2018-08-11T00:47:10.064Z,15.71
2018-08-11T00:49:45.703Z,15.69
2018-08-11T00:51:11.047Z,15.69
2018-08-11T00:52:39.435Z,15.63
2018-08-11T00:54:06.751Z,15.63
2018-08-11T00:55:32.537Z,15.65
2018-08-11T00:57:00.008Z,15.70
2018-08-11T00:58:27.417Z,15.73
2018-08-11T00:59:54.531Z,15.76
2018-08-11T01:01:21.931Z,15.75
2018-08-11T01:02:49.469Z,15.74
2018-08-11T01:04:16.841Z,15.76
2018-08-11T01:05:45.397Z,15.75
2018-08-11T01:07:11.883Z,15.73
2018-08-11T01:08:38.875Z,15.74
2018-08-11T01:10:05.712Z,15.76
2018-08-11T01:11:33.221Z,15.81
2018-08-11T01:13:01.586Z,15.86
2018-08-11T01:14:29.108Z,15.92
2018-08-11T01:15:56.442Z,15.95
2018-08-11T01:17:22.781Z,15.98
2018-08-11T01:18:49.665Z,15.98
2018-08-11T01:20:18.077Z,15.99
2018-08-11T01:21:44.679Z,15.99
2018-08-11T01:23:13.150Z,16.01
2018-08-11T01:24:40.586Z,16.04
2018-08-11T01:26:06.975Z,16.09
2018-08-11T01:27:34.306Z,16.14
2018-08-11T01:29:01.890Z,16.19
2018-08-11T01:30:30.363Z,16.23
2018-08-11T01:31:56.894Z,16.26
2018-08-11T01:33:25.490Z,16.31
2018-08-11T01:34:51.420Z,16.35
2018-08-11T01:36:18.747Z,16.39
2018-08-11T01:37:46.115Z,16.42
2018-08-11T01:39:13.007Z,16.43
2018-08-11T01:40:41.048Z,16.46
2018-08-11T01:42:07.384Z,16.49
2018-08-11T01:43:35.340Z,16.52
2018-08-11T01:45:02.871Z,16.55
2018-08-11T01:46:30.349Z,16.58
2018-08-11T01:47:57.762Z,16.60
2018-08-11T01:49:24.680Z,16.62
2018-08-11T01:50:50.138Z,16.64
2018-08-11T01:52:17.350Z,16.66
2018-08-11T01:53:46.027Z,16.66
2018-08-11T01:55:13.541Z,16.68
2018-08-11T01:56:39.853Z,16.69
2018-08-11T01:58:07.672Z,16.69
2018-08-11T01:59:33.259Z,16.71
2018-08-11T02:01:01.864Z,16.71
2018-08-11T02:02:27.363Z,16.73
2018-08-11T02:03:54.917Z,16.74
2018-08-11T02:05:23.089Z,16.75
2018-08-11T02:06:49.291Z,16.76
2018-08-11T02:08:15.925Z,16.74
2018-08-11T02:09:43.205Z,16.69
2018-08-11T02:11:10.720Z,16.67
2018-08-11T02:12:39.435Z,16.67
2018-08-11T02:14:05.872Z,16.69
2018-08-11T02:15:33.551Z,16.70
2018-08-11T02:17:02.074Z,16.70
2018-08-11T02:18:28.527Z,16.71
2018-08-11T02:19:55.812Z,16.73
2018-08-11T02:21:24.462Z,16.74
2018-08-11T02:22:50.133Z,16.75
2018-08-11T02:24:17.118Z,16.77
2018-08-11T02:25:44.663Z,16.78
2018-08-11T02:27:12.205Z,16.81
2018-08-11T02:28:38.606Z,16.83
2018-08-11T02:30:06.154Z,16.83
2018-08-11T02:31:33.635Z,16.84
2018-08-11T02:33:02.256Z,16.85
2018-08-11T02:34:29.771Z,16.85
2018-08-11T02:35:56.198Z,16.86
2018-08-11T02:37:24.050Z,16.86
2018-08-11T02:38:51.422Z,16.85
2018-08-11T02:40:17.116Z,16.85
2018-08-11T02:41:45.758Z,16.85
2018-08-11T02:43:13.313Z,16.84
2018-08-11T02:44:40.853Z,16.85
2018-08-11T02:46:07.590Z,16.85
2018-08-11T02:47:35.208Z,16.85
2018-08-11T02:49:01.602Z,16.82
2018-08-11T02:50:28.759Z,16.76
2018-08-11T02:51:56.323Z,16.73
2018-08-11T02:53:23.785Z,16.69
2018-08-11T02:54:51.191Z,16.62
2018-08-11T02:56:18.663Z,16.59
2018-08-11T02:57:46.887Z,16.61
2018-08-11T02:59:13.250Z,16.64
2018-08-11T03:00:41.697Z,16.65
2018-08-11T03:02:07.361Z,16.68
2018-08-11T03:03:34.716Z,16.67
2018-08-11T03:05:02.345Z,16.65
2018-08-11T03:06:30.816Z,16.67
2018-08-11T03:07:57.888Z,16.70
2018-08-11T03:09:24.308Z,16.73
2018-08-11T03:10:54.252Z,16.75
2018-08-11T03:12:18.426Z,16.77
2018-08-11T03:13:45.707Z,16.74
2018-08-11T03:15:14.050Z,16.75
2018-08-11T03:16:40.672Z,16.75
2018-08-11T03:18:08.103Z,16.73
2018-08-11T03:19:36.674Z,16.74
2018-08-11T03:21:04.206Z,16.70
2018-08-11T03:22:31.872Z,16.67
2018-08-11T03:23:58.389Z,16.70
2018-08-11T03:25:26.727Z,16.66
2018-08-11T03:26:53.199Z,16.66
2018-08-11T03:28:21.665Z,16.68
2018-08-11T03:29:48.218Z,16.70
2018-08-11T03:31:15.875Z,16.73
2018-08-11T03:32:42.243Z,16.74
2018-08-11T03:34:10.714Z,16.73
2018-08-11T03:35:38.173Z,16.75
2018-08-11T03:37:05.657Z,16.74
2018-08-11T03:38:33.135Z,16.76
2018-08-11T03:39:59.478Z,16.78
2018-08-11T03:41:26.530Z,16.80
2018-08-11T03:42:53.966Z,16.83
2018-08-11T03:44:21.355Z,16.83
2018-08-11T03:45:48.521Z,16.86
2018-08-11T03:47:15.533Z,16.87
2018-08-11T03:48:43.125Z,16.88
2018-08-11T03:50:11.120Z,16.89
2018-08-11T03:51:38.462Z,16.90
2018-08-11T03:53:04.272Z,16.91
2018-08-11T03:54:32.018Z,16.91
2018-08-11T03:55:59.450Z,16.91
2018-08-11T03:57:26.308Z,16.91
2018-08-11T03:58:52.671Z,16.91
2018-08-11T04:00:20.950Z,16.91
2018-08-11T04:01:48.079Z,16.91
2018-08-11T04:03:15.695Z,16.90
2018-08-11T04:04:43.036Z,16.90
2018-08-11T04:06:10.007Z,16.90
2018-08-11T04:07:37.467Z,16.90
2018-08-11T04:09:03.900Z,16.90
2018-08-11T04:10:31.271Z,16.91
2018-08-11T04:11:57.975Z,16.90
2018-08-11T04:13:25.426Z,16.91
2018-08-11T04:14:52.861Z,16.92
2018-08-11T04:16:20.293Z,16.92
2018-08-11T04:17:47.701Z,16.94
2018-08-11T04:19:16.208Z,16.94
2018-08-11T04:20:43.764Z,16.94
2018-08-11T04:22:11.247Z,16.94
2018-08-11T04:23:38.834Z,16.94
2018-08-11T04:25:05.359Z,16.93
2018-08-11T04:26:33.762Z,16.94
2018-08-11T04:28:01.325Z,16.94
2018-08-11T04:29:27.677Z,16.97
2018-08-11T04:30:55.433Z,16.98
2018-08-11T04:32:21.787Z,17.00
2018-08-11T04:33:49.093Z,17.02
2018-08-11T04:35:16.606Z,17.03
2018-08-11T04:36:45.203Z,17.05
2018-08-11T04:38:11.617Z,17.07
2018-08-11T04:39:39.217Z,17.08
2018-08-11T04:41:06.651Z,17.11
2018-08-11T04:42:33.492Z,17.14
2018-08-11T04:43:59.896Z,17.17
2018-08-11T04:45:27.410Z,17.21
2018-08-11T04:46:53.960Z,17.23
2018-08-11T04:48:21.359Z,17.27
2018-08-11T04:49:48.755Z,17.30
2018-08-11T04:51:15.981Z,17.34
2018-08-11T04:52:43.409Z,17.37
2018-08-11T04:54:11.876Z,17.39
2018-08-11T04:55:38.599Z,17.42
2018-08-11T04:57:06.069Z,17.43
2018-08-11T04:58:32.470Z,17.44
2018-08-11T04:59:59.910Z,17.46
2018-08-11T05:01:28.477Z,17.49
2018-08-11T05:02:54.837Z,17.51
2018-08-11T05:04:21.656Z,17.53
2018-08-11T05:05:49.452Z,17.55
2018-08-11T05:07:15.091Z,17.56
2018-08-11T05:08:43.568Z,17.58
2018-08-11T05:10:10.017Z,17.57
2018-08-11T05:11:37.518Z,17.57
2018-08-11T05:13:05.158Z,17.56
2018-08-11T05:14:33.566Z,17.55
2018-08-11T05:16:00.995Z,17.54
2018-08-11T05:17:28.521Z,17.51
2018-08-11T05:18:54.900Z,17.51
2018-08-11T05:20:22.268Z,17.49
2018-08-11T05:21:49.342Z,17.45
2018-08-11T05:23:17.798Z,17.44
2018-08-11T05:24:44.812Z,17.44
2018-08-11T05:26:12.207Z,17.42
2018-08-11T05:27:39.428Z,17.41
2018-08-11T05:29:06.991Z,17.42
2018-08-11T05:30:33.029Z,17.39
2018-08-11T05:32:00.601Z,17.38
2018-08-11T05:33:28.061Z,17.37
2018-08-11T05:34:55.777Z,17.38
2018-08-11T05:36:22.134Z,17.40
2018-08-11T05:37:49.181Z,17.43
2018-08-11T05:39:16.722Z,17.46
2018-08-11T05:40:44.201Z,17.51
2018-08-11T05:42:12.832Z,17.55
2018-08-11T05:43:40.489Z,17.56
2018-08-11T05:45:07.726Z,17.60
2018-08-11T05:46:34.139Z,17.61
2018-08-11T05:48:01.664Z,17.63
2018-08-11T05:49:28.447Z,17.65
2018-08-11T05:50:56.629Z,17.68
2018-08-11T05:52:22.244Z,17.70
2018-08-11T05:53:49.793Z,17.74
2018-08-11T05:55:18.364Z,17.80
2018-08-11T05:56:44.736Z,17.90
2018-08-11T05:58:12.266Z,18.01
2018-08-11T05:59:39.204Z,18.17
2018-08-11T06:01:06.124Z,18.37
2018-08-11T06:02:33.481Z,18.64
2018-08-11T06:04:02.110Z,18.87
2018-08-11T06:05:29.466Z,19.05
2018-08-11T06:06:56.943Z,19.12
2018-08-11T06:08:22.995Z,19.16
2018-08-11T06:09:50.664Z,19.15
2018-08-11T06:11:19.103Z,19.10
2018-08-11T06:12:46.634Z,19.04
2018-08-11T06:14:12.748Z,19.00
2018-08-11T06:15:41.140Z,18.96
2018-08-11T06:17:07.291Z,18.91
2018-08-11T06:18:35.996Z,18.89
2018-08-11T06:20:03.516Z,18.87
2018-08-11T06:21:29.719Z,18.84
2018-08-11T06:22:58.088Z,18.82
2018-08-11T06:24:24.370Z,18.78
2018-08-11T06:25:51.699Z,18.78
2018-08-11T06:27:19.161Z,18.76
2018-08-11T06:28:47.750Z,18.71
2018-08-11T06:30:14.040Z,18.69
2018-08-11T06:31:42.650Z,18.71
2018-08-11T06:33:08.408Z,18.63
2018-08-11T06:34:35.910Z,18.62
2018-08-11T06:36:02.915Z,18.60
2018-08-11T06:37:29.968Z,18.55
2018-08-11T06:38:57.196Z,18.45
2018-08-11T06:40:24.779Z,18.48
2018-08-11T06:41:52.238Z,18.50
2018-08-11T06:43:20.616Z,18.50
2018-08-11T06:44:48.012Z,18.53
2018-08-11T06:46:13.901Z,18.53
2018-08-11T06:47:42.359Z,18.50
2018-08-11T06:49:08.947Z,18.50
2018-08-11T06:50:37.348Z,18.56
2018-08-11T06:52:04.947Z,18.62
2018-08-11T06:53:31.425Z,18.69
2018-08-11T06:54:59.954Z,18.78
2018-08-11T06:56:26.652Z,18.83
2018-08-11T06:57:54.253Z,18.88
2018-08-11T06:59:20.627Z,18.97
2018-08-11T07:00:47.908Z,19.08
2018-08-11T07:02:16.162Z,19.15
2018-08-11T07:03:43.591Z,19.19
2018-08-11T07:05:10.114Z,19.22
2018-08-11T07:06:37.795Z,19.25
2018-08-11T07:08:06.170Z,19.21
2018-08-11T07:09:32.632Z,19.11
2018-08-11T07:10:59.504Z,19.15
2018-08-11T07:12:26.398Z,19.23
2018-08-11T07:13:54.939Z,19.30
2018-08-11T07:15:22.367Z,19.32
2018-08-11T07:16:48.469Z,19.27
2018-08-11T07:18:16.955Z,19.25
2018-08-11T07:19:42.956Z,19.21
2018-08-11T07:21:10.549Z,19.21
2018-08-11T07:22:39.047Z,19.22
2018-08-11T07:24:06.408Z,19.28
2018-08-11T07:25:33.877Z,19.30
2018-08-11T07:27:00.337Z,19.41
2018-08-11T07:28:26.772Z,19.47
2018-08-11T07:29:54.833Z,19.61
2018-08-11T07:31:20.744Z,19.74
2018-08-11T07:32:48.115Z,19.87
2018-08-11T07:34:15.821Z,19.93
2018-08-11T07:35:44.343Z,19.91
2018-08-11T07:37:11.932Z,19.95
2018-08-11T07:38:39.223Z,20.08
2018-08-11T07:40:05.817Z,20.26
2018-08-11T07:41:33.361Z,20.35
2018-08-11T07:43:00.988Z,20.36
2018-08-11T07:44:28.212Z,20.41
2018-08-11T07:45:55.675Z,20.46
2018-08-11T07:47:23.133Z,20.38
2018-08-11T07:48:50.313Z,20.25
2018-08-11T07:50:17.705Z,20.13
2018-08-11T07:51:45.312Z,20.06
2018-08-11T07:53:13.825Z,20.00
2018-08-11T07:54:40.291Z,19.96
2018-08-11T07:56:07.884Z,19.95
2018-08-11T07:57:36.483Z,19.79
2018-08-11T07:59:02.779Z,19.70
2018-08-11T08:00:31.188Z,19.44
2018-08-11T08:01:57.413Z,19.25
2018-08-11T08:03:24.816Z,19.04
2018-08-11T08:04:52.359Z,18.74
2018-08-11T08:06:20.545Z,18.39
2018-08-11T08:07:46.684Z,18.16
2018-08-11T08:09:14.193Z,18.03
2018-08-11T08:10:41.398Z,17.90
2018-08-11T08:12:09.967Z,17.88
2018-08-11T08:13:36.389Z,17.84
2018-08-11T08:15:03.959Z,17.81
2018-08-11T08:16:29.972Z,17.85
2018-08-11T08:17:58.441Z,17.91
2018-08-11T08:19:24.241Z,17.88
2018-08-11T08:20:51.356Z,17.83
2018-08-11T08:22:19.490Z,17.78
2018-08-11T08:23:45.619Z,17.71
2018-08-11T08:25:13.150Z,17.73
2018-08-11T08:26:41.774Z,17.78
2018-08-11T08:28:08.330Z,17.76
2018-08-11T08:29:35.728Z,17.73
2018-08-11T08:31:02.597Z,17.74
2018-08-11T08:32:30.222Z,17.72
2018-08-11T08:33:57.759Z,17.66
2018-08-11T08:35:26.051Z,17.63
2018-08-11T08:36:52.372Z,17.60
2018-08-11T08:38:19.843Z,17.50
2018-08-11T08:39:48.148Z,17.39
2018-08-11T08:41:14.640Z,17.31
2018-08-11T08:42:42.039Z,17.25
2018-08-11T08:44:10.522Z,17.19
2018-08-11T08:45:37.028Z,17.13
2018-08-11T08:47:05.329Z,17.11
2018-08-11T08:48:31.910Z,17.09
2018-08-11T08:49:58.502Z,17.04
2018-08-11T08:51:26.080Z,17.02
2018-08-11T08:52:52.613Z,17.04
2018-08-11T08:54:20.949Z,17.05
2018-08-11T08:55:48.087Z,17.08
2018-08-11T08:57:15.671Z,17.09
2018-08-11T08:58:42.118Z,17.10
2018-08-11T09:00:08.977Z,17.10
2018-08-11T09:01:36.981Z,17.12
2018-08-11T09:03:03.234Z,17.13
2018-08-11T09:04:31.812Z,17.13
2018-08-11T09:05:58.443Z,17.15
2018-08-11T09:07:26.739Z,17.15
2018-08-11T09:08:52.483Z,17.12
2018-08-11T09:10:19.346Z,17.14
2018-08-11T09:11:47.735Z,17.13
2018-08-11T09:13:14.268Z,17.13
2018-08-11T09:14:42.501Z,17.12
2018-08-11T09:16:08.404Z,17.11
2018-08-11T09:17:35.509Z,17.07
2018-08-11T09:19:02.821Z,17.06
2018-08-11T09:20:31.265Z,17.06
2018-08-11T09:22:07.150Z,17.08
2018-08-11T09:29:14.616Z,17.38
2018-08-11T09:30:40.372Z,17.53
2018-08-11T09:32:18.392Z,17.72
2018-08-11T09:33:44.603Z,17.86
2018-08-11T09:35:11.175Z,17.97
2018-08-11T09:36:38.326Z,18.03
2018-08-11T09:38:06.733Z,18.03
2018-08-11T09:39:33.293Z,18.07
2018-08-11T09:41:01.854Z,18.17
2018-08-11T09:42:28.287Z,18.27
2018-08-11T09:43:55.746Z,18.38
2018-08-11T09:45:23.271Z,18.52
2018-08-11T09:46:50.558Z,18.62
2018-08-11T09:48:18.885Z,18.68
2018-08-11T09:49:45.438Z,18.76
2018-08-11T09:51:12.822Z,18.82
2018-08-11T09:52:40.305Z,18.82
2018-08-11T09:54:07.860Z,18.85
2018-08-11T09:55:35.349Z,18.87
2018-08-11T09:57:03.822Z,18.88
2018-08-11T09:58:30.437Z,18.91
2018-08-11T09:59:58.671Z,18.96
2018-08-11T10:01:25.882Z,19.02
2018-08-11T10:02:51.868Z,19.09
2018-08-11T10:04:20.279Z,19.17
2018-08-11T10:05:46.108Z,19.28
2018-08-11T10:07:13.738Z,19.37
2018-08-11T10:08:41.266Z,19.43
2018-08-11T10:10:09.721Z,19.53
2018-08-11T10:11:37.170Z,19.59
2018-08-11T10:13:03.541Z,19.60
2018-08-11T10:14:30.963Z,19.58
2018-08-11T10:15:58.557Z,19.63
2018-08-11T10:17:26.514Z,19.71
2018-08-11T10:18:55.895Z,19.78
2018-08-11T10:20:26.490Z,19.79
2018-08-11T10:21:48.706Z,19.84
2018-08-11T10:23:16.056Z,19.92
2018-08-11T10:24:43.239Z,20.01
2018-08-11T10:26:09.548Z,20.12
2018-08-11T10:27:38.153Z,20.21
2018-08-11T10:29:04.200Z,20.30
2018-08-11T10:30:32.826Z,20.39
2018-08-11T10:31:59.358Z,20.52
2018-08-11T10:33:27.788Z,20.68
2018-08-11T10:34:54.519Z,20.86
2018-08-11T10:36:22.850Z,20.99
2018-08-11T10:37:49.001Z,21.05
2018-08-11T10:39:16.389Z,21.06
2018-08-11T10:40:43.837Z,20.97
2018-08-11T10:42:12.366Z,20.90
2018-08-11T10:43:39.527Z,20.81
2018-08-11T10:45:05.979Z,20.69
2018-08-11T10:46:32.894Z,20.51
2018-08-11T10:48:00.351Z,20.47
2018-08-11T10:49:28.831Z,20.55
2018-08-11T10:50:56.038Z,20.67
2018-08-11T10:52:22.408Z,20.83
2018-08-11T10:53:50.823Z,20.80
2018-08-11T10:55:18.247Z,20.70
2018-08-11T10:56:44.537Z,20.67
2018-08-11T10:58:11.893Z,20.63
2018-08-11T10:59:39.298Z,20.77
2018-08-11T11:01:07.763Z,20.90
2018-08-11T11:02:34.269Z,21.02
2018-08-11T11:04:02.702Z,21.14
2018-08-11T11:05:30.396Z,21.12
2018-08-11T11:06:56.760Z,21.12
2018-08-11T11:08:25.234Z,21.20
2018-08-11T11:09:51.592Z,21.36
2018-08-11T11:11:19.952Z,21.59
2018-08-11T11:12:47.164Z,21.78
2018-08-11T11:14:13.790Z,21.97
2018-08-11T11:15:41.287Z,22.14
2018-08-11T11:17:08.848Z,22.25
2018-08-11T11:18:36.574Z,22.32
2018-08-11T11:20:04.616Z,22.33
2018-08-11T11:21:31.016Z,22.36
2018-08-11T11:22:58.551Z,22.35
2018-08-11T11:24:27.248Z,22.38
2018-08-11T11:25:53.766Z,22.45
2018-08-11T11:27:21.195Z,22.51
2018-08-11T11:28:48.749Z,22.60
2018-08-11T11:30:16.210Z,22.77
2018-08-11T11:31:44.774Z,22.91
2018-08-11T11:33:11.938Z,23.08
2018-08-11T11:34:39.379Z,23.18
2018-08-11T11:36:05.712Z,23.33
2018-08-11T11:37:33.847Z,23.40
2018-08-11T11:39:01.492Z,23.53
2018-08-11T11:40:28.235Z,23.71
2018-08-11T11:41:49.615Z,23.88
2018-08-11T11:43:24.367Z,24.00
2018-08-11T11:44:51.668Z,24.10
2018-08-11T11:46:11.891Z,24.07
2018-08-11T11:47:45.605Z,23.92
2018-08-11T11:49:14.011Z,23.78
2018-08-11T11:50:41.257Z,23.47
2018-08-11T11:52:08.716Z,23.23
2018-08-11T11:53:34.793Z,22.93
2018-08-11T11:55:02.303Z,22.79
2018-08-11T11:56:30.794Z,22.68
2018-08-11T11:57:58.329Z,22.51
2018-08-11T11:59:24.814Z,22.48
2018-08-11T12:00:53.224Z,22.47
2018-08-11T12:02:19.485Z,22.52
2018-08-11T12:03:47.924Z,22.48
2018-08-11T12:05:15.321Z,22.54
2018-08-11T12:06:42.934Z,22.54
2018-08-11T12:08:09.524Z,22.48
2018-08-11T12:09:31.099Z,22.36
2018-08-11T12:11:04.401Z,22.32
2018-08-11T12:12:33.159Z,22.23
2018-08-11T12:14:00.867Z,22.23
2018-08-11T12:15:28.282Z,22.13
2018-08-11T12:16:54.959Z,21.98
2018-08-11T12:18:22.402Z,21.70
2018-08-11T12:19:50.872Z,21.57
2018-08-11T12:21:17.128Z,21.38
2018-08-11T12:22:45.816Z,21.25
2018-08-11T12:24:12.500Z,21.11
2018-08-11T12:25:39.328Z,20.93
2018-08-11T12:27:06.835Z,20.88
2018-08-11T12:28:34.355Z,20.66
2018-08-11T12:30:01.957Z,20.36
2018-08-11T12:31:30.535Z,19.99
2018-08-11T12:32:57.087Z,19.44
2018-08-11T12:34:24.515Z,18.89
2018-08-11T12:35:52.059Z,18.45
2018-08-11T12:37:20.395Z,18.08
2018-08-11T12:38:57.059Z,17.79
2018-08-11T12:40:17.210Z,17.68
2018-08-11T12:41:50.763Z,17.79
2018-08-11T12:43:18.207Z,17.77
2018-08-11T12:44:46.856Z,17.70
2018-08-11T13:03:11.826Z,19.29
2018-08-11T13:04:38.101Z,19.56
2018-08-11T13:06:04.537Z,19.68
2018-08-11T13:07:31.835Z,19.79
2018-08-11T13:08:59.208Z,19.83
2018-08-11T13:10:26.561Z,19.93
2018-08-11T13:11:53.976Z,20.01
2018-08-11T13:13:21.494Z,20.15
2018-08-11T13:14:49.018Z,20.31
2018-08-11T13:16:16.391Z,20.49
2018-08-11T13:17:44.117Z,20.43
2018-08-11T13:19:12.652Z,20.31
2018-08-11T13:20:39.149Z,20.16
2018-08-11T13:22:07.480Z,20.07
2018-08-11T13:23:34.179Z,19.90
2018-08-11T13:25:02.061Z,19.80
2018-08-11T13:26:29.529Z,19.78
2018-08-11T13:27:55.944Z,19.67
2018-08-11T13:29:23.540Z,19.55
2018-08-11T13:30:52.100Z,19.33
2018-08-11T13:32:18.199Z,19.18
2018-08-11T13:33:45.917Z,19.16
2018-08-11T13:35:14.567Z,19.09
2018-08-11T13:36:40.976Z,19.08
2018-08-11T13:38:08.554Z,19.06
2018-08-11T13:39:36.003Z,19.03
2018-08-11T13:41:03.443Z,19.05
2018-08-11T13:42:30.840Z,19.03
2018-08-11T13:43:58.358Z,19.08
2018-08-11T13:45:25.898Z,19.04
2018-08-11T13:46:52.720Z,18.96
2018-08-11T13:48:20.817Z,18.90
2018-08-11T13:49:47.832Z,18.89
2018-08-11T13:51:14.417Z,18.99
2018-08-11T13:52:42.738Z,19.19
2018-08-11T13:54:08.616Z,19.39
2018-08-11T13:55:36.183Z,19.59
2018-08-11T13:57:03.194Z,19.75
2018-08-11T13:58:31.406Z,19.87
2018-08-11T13:59:57.576Z,19.94
2018-08-11T14:01:25.028Z,19.93
2018-08-11T14:02:52.551Z,19.92
2018-08-11T14:04:19.757Z,19.89
2018-08-11T14:05:47.207Z,19.83
2018-08-11T14:07:14.967Z,19.86
2018-08-11T14:08:41.799Z,19.91
2018-08-11T14:10:09.161Z,19.92
2018-08-11T14:11:36.075Z,19.86
2018-08-11T14:13:03.596Z,19.79
2018-08-11T14:14:31.195Z,19.72
2018-08-11T14:15:59.659Z,19.62
2018-08-11T14:17:26.192Z,19.59
2018-08-11T14:18:54.103Z,19.48
2018-08-11T14:20:20.421Z,19.43
2018-08-11T14:21:48.794Z,19.28
2018-08-11T14:23:15.203Z,19.16
2018-08-11T14:24:43.763Z,19.08
2018-08-11T14:26:10.210Z,19.01
2018-08-11T14:27:37.496Z,18.97
2018-08-11T14:29:04.333Z,18.98
2018-08-11T14:30:31.759Z,19.01
2018-08-11T14:31:59.066Z,19.00
2018-08-11T14:33:27.416Z,18.96
2018-08-11T14:34:54.855Z,18.94
2018-08-11T14:36:21.452Z,18.99
2018-08-11T14:37:48.922Z,19.05
2018-08-11T14:39:17.352Z,19.12
2018-08-11T14:40:44.964Z,19.16
2018-08-11T14:42:12.412Z,19.23
2018-08-11T14:43:39.813Z,19.28
2018-08-11T14:45:07.349Z,19.30
2018-08-11T14:46:33.376Z,19.31
2018-08-11T14:48:01.961Z,19.29
2018-08-11T14:49:28.378Z,19.27
2018-08-11T14:50:55.880Z,19.25
2018-08-11T14:52:23.061Z,19.22
2018-08-11T14:53:51.000Z,19.19
2018-08-11T14:55:16.993Z,19.22
2018-08-11T14:56:44.543Z,19.30
2018-08-11T14:58:13.119Z,19.42
2018-08-11T14:59:40.777Z,19.53
2018-08-11T15:01:06.993Z,19.56
2018-08-11T15:02:33.773Z,19.60
2018-08-11T15:04:01.323Z,19.64
2018-08-11T15:05:28.929Z,19.71
2018-08-11T15:06:56.528Z,19.77
2018-08-11T15:08:23.908Z,19.71
2018-08-11T15:09:50.592Z,19.60
2018-08-11T15:11:18.990Z,19.54
2018-08-11T15:12:45.307Z,19.50
2018-08-11T15:14:12.797Z,19.45
2018-08-11T15:15:41.207Z,19.39
2018-08-11T15:17:07.792Z,19.39
2018-08-11T15:18:36.096Z,19.41
2018-08-11T15:20:03.480Z,19.44
2018-08-11T15:21:28.976Z,19.44
2018-08-11T15:22:56.551Z,19.47
2018-08-11T15:24:25.068Z,19.49
2018-08-11T15:25:51.565Z,19.55
2018-08-11T15:27:20.122Z,19.61
2018-08-11T15:28:46.484Z,19.62
2018-08-11T15:30:13.969Z,19.61
2018-08-11T15:31:42.522Z,19.60
2018-08-11T15:33:10.013Z,19.59
2018-08-11T15:34:37.564Z,19.59
2018-08-11T15:36:04.996Z,19.57
2018-08-11T15:37:31.432Z,19.57
2018-08-11T15:38:58.655Z,19.58
2018-08-11T15:40:25.763Z,19.52
2018-08-11T15:41:53.131Z,19.49
2018-08-11T15:43:20.461Z,19.49
2018-08-11T15:44:48.941Z,19.49
2018-08-11T15:46:16.468Z,19.51
2018-08-11T15:47:43.970Z,19.53
2018-08-11T15:49:10.503Z,19.53
2018-08-11T15:50:39.071Z,19.52
2018-08-11T15:52:05.165Z,19.45
2018-08-11T15:53:33.626Z,19.45
2018-08-11T15:55:00.044Z,19.41
2018-08-11T15:56:27.726Z,19.38
2018-08-11T15:57:55.011Z,19.34
2018-08-11T15:59:22.524Z,19.29
2018-08-11T16:00:48.756Z,19.25
2018-08-11T16:02:16.289Z,19.27
2018-08-11T16:03:44.783Z,19.29
2018-08-11T16:05:12.365Z,19.34
2018-08-11T16:06:38.630Z,19.36
2018-08-11T16:08:07.169Z,19.31
2018-08-11T16:09:34.852Z,19.33
2018-08-11T16:11:02.342Z,19.36
2018-08-11T16:12:28.580Z,19.39
2018-08-11T16:13:56.121Z,19.37
2018-08-11T16:15:23.477Z,19.37
2018-08-11T16:16:51.958Z,19.37
2018-08-11T16:18:18.882Z,19.35
2018-08-11T16:19:45.395Z,19.30
2018-08-11T16:21:13.924Z,19.21
2018-08-11T16:22:41.254Z,19.14
2018-08-11T16:24:07.764Z,19.07
2018-08-11T16:25:35.409Z,19.08
2018-08-11T16:27:02.852Z,19.09
2018-08-11T16:28:31.367Z,19.08
2018-08-11T16:29:58.067Z,19.08
2018-08-11T16:31:25.578Z,19.08
2018-08-11T16:32:52.816Z,19.12
2018-08-11T16:34:21.175Z,19.08
2018-08-11T16:35:48.246Z,19.02
2018-08-11T16:37:14.748Z,18.99
2018-08-11T16:38:43.392Z,18.90
2018-08-11T16:40:10.070Z,18.70
2018-08-11T16:41:37.528Z,18.48
2018-08-11T16:43:03.885Z,18.30
2018-08-11T16:44:31.322Z,18.22
2018-08-11T16:45:58.746Z,18.15
2018-08-11T16:47:25.240Z,18.05
2018-08-11T16:48:53.617Z,17.97
2018-08-11T16:50:19.901Z,17.91
2018-08-11T16:51:47.599Z,17.85
2018-08-11T16:53:13.868Z,17.77
2018-08-11T16:54:41.017Z,17.70
2018-08-11T16:56:08.460Z,17.58
2018-08-11T16:57:35.441Z,17.52
2018-08-11T16:59:01.902Z,17.50
2018-08-11T17:00:29.537Z,17.55
2018-08-11T17:01:57.970Z,17.62
2018-08-11T17:03:25.463Z,17.70
2018-08-11T17:04:51.814Z,17.73
2018-08-11T17:06:19.263Z,17.81
2018-08-11T17:07:47.653Z,17.87
2018-08-11T17:09:15.206Z,17.97
2018-08-11T17:10:41.788Z,17.99
2018-08-11T17:12:10.269Z,18.03
2018-08-11T17:13:36.656Z,18.08
2018-08-11T17:15:05.001Z,18.11
2018-08-11T17:16:31.359Z,18.16
2018-08-11T17:17:58.427Z,18.18
2018-08-11T17:19:26.870Z,18.21
2018-08-11T17:20:53.002Z,18.21
2018-08-11T17:22:20.312Z,18.17
2018-08-11T17:23:48.733Z,18.16
2018-08-11T17:25:15.194Z,18.10
2018-08-11T17:26:42.501Z,18.08
2018-08-11T17:28:11.176Z,18.10
2018-08-11T17:29:37.431Z,18.07
2018-08-11T17:31:04.331Z,18.04
2018-08-11T17:32:32.979Z,18.00
2018-08-11T17:34:00.119Z,17.94
2018-08-11T17:35:26.465Z,17.88
2018-08-11T17:36:54.841Z,17.81
2018-08-11T17:38:20.814Z,17.73
2018-08-11T17:39:48.331Z,17.65
2018-08-11T17:41:15.239Z,17.61
2018-08-11T17:42:44.044Z,17.60
2018-08-11T17:44:10.417Z,17.60
2018-08-11T17:45:37.813Z,17.58
2018-08-11T17:47:06.321Z,17.62
2018-08-11T17:48:32.641Z,17.62
2018-08-11T17:50:01.260Z,17.62
2018-08-11T17:51:26.883Z,17.58
2018-08-11T17:52:53.844Z,17.56
2018-08-11T17:54:21.725Z,17.53
2018-08-11T17:55:47.607Z,17.48
2018-08-11T17:57:15.055Z,17.48
2018-08-11T17:58:42.717Z,17.50
2018-08-11T18:00:11.149Z,17.49
2018-08-11T18:01:37.590Z,17.43
2018-08-11T18:03:06.026Z,17.40
2018-08-11T18:04:32.795Z,17.38
2018-08-11T18:05:59.172Z,17.34
2018-08-11T18:07:27.269Z,17.31
2018-08-11T18:08:54.701Z,17.27
2018-08-11T18:10:20.914Z,17.29
2018-08-11T18:11:49.381Z,17.28
2018-08-11T18:13:17.040Z,17.24
2018-08-11T18:14:43.499Z,17.18
2018-08-11T18:16:10.685Z,17.15
2018-08-11T18:17:37.396Z,17.10
2018-08-11T18:19:05.935Z,17.03
2018-08-11T18:20:32.280Z,17.00
2018-08-11T18:21:59.759Z,16.96
2018-08-11T18:23:28.215Z,16.88
2018-08-11T18:24:55.636Z,16.83
2018-08-11T18:26:21.464Z,16.79
2018-08-11T18:27:48.257Z,16.76
2018-08-11T18:29:16.887Z,16.73
2018-08-11T18:30:42.728Z,16.71
2018-08-11T18:32:11.287Z,16.70
2018-08-11T18:33:38.760Z,16.70
2018-08-11T18:35:05.055Z,16.67
2018-08-11T18:36:32.430Z,16.64
2018-08-11T18:38:00.970Z,16.60
2018-08-11T18:39:27.417Z,16.63
2018-08-11T18:40:55.287Z,16.62
2018-08-11T18:42:21.665Z,16.56
2018-08-11T18:43:49.337Z,16.57
2018-08-11T18:45:16.857Z,16.56
2018-08-11T18:46:44.452Z,16.51
2018-08-11T18:48:11.875Z,16.50
2018-08-11T18:49:38.282Z,16.51
2018-08-11T18:51:06.829Z,16.50
2018-08-11T18:52:33.164Z,16.49
2018-08-11T18:54:00.511Z,16.52
2018-08-11T18:55:29.105Z,16.53
2018-08-11T18:56:56.303Z,16.55
2018-08-11T18:58:22.946Z,16.52
2018-08-11T18:59:49.092Z,16.52
2018-08-11T19:01:16.806Z,16.53
2018-08-11T19:02:44.212Z,16.52
2018-08-11T19:04:10.699Z,16.54
2018-08-11T19:05:38.060Z,16.54
2018-08-11T19:07:05.278Z,16.48
2018-08-11T19:08:32.636Z,16.46
2018-08-11T19:10:01.104Z,16.46
2018-08-11T19:11:28.650Z,16.40
2018-08-11T19:12:55.919Z,16.40
2018-08-11T19:14:23.262Z,16.43
2018-08-11T19:26:20.574Z,16.56
2018-08-11T19:28:16.381Z,16.61
2018-08-11T19:30:12.677Z,16.63
2018-08-11T19:31:39.452Z,16.66
2018-08-11T19:33:05.761Z,16.65
2018-08-11T19:35:32.373Z,16.65
2018-08-11T20:44:20.459Z,16.64
2018-08-11T20:45:46.016Z,16.67
2018-08-11T20:47:13.275Z,16.63
2018-08-11T20:48:39.899Z,16.57
2018-08-11T20:50:46.123Z,16.55
2018-08-11T20:52:13.056Z,16.54
2018-08-11T20:53:40.885Z,16.53
